Time;durP1;ratioP1;P1;durP2;ratioP2;P2;SDS_P1;SDS_P2;PMS_P1;PMS_P2;Temp;Humidity;BMP_temperature;BMP_pressure;BME280_temperature;BME280_humidity;BME280_pressure;Samples;Min_cycle;Max_cycle;Signal;HPM_P1;HPM_P2
2021/03/10 00:00:24;;;;;;;29.52;18.38;;;5.60;82.50;;;;;;5020048;28;20084;-68
2021/03/10 00:02:50;;;;;;;40.42;22.95;;;5.50;82.90;;;;;;5021948;28;20037;-69
2021/03/10 00:05:16;;;;;;;30.15;17.80;;;5.60;83.80;;;;;;5021159;28;20018;-68
2021/03/10 00:07:42;;;;;;;39.70;22.20;;;5.60;84.10;;;;;;5021966;28;20464;-73
2021/03/10 00:10:10;;;;;;;36.55;22.92;;;5.60;82.90;;;;;;5021161;28;20483;-69
2021/03/10 00:12:35;;;;;;;46.20;24.90;;;5.60;83.50;;;;;;5022624;28;20048;-68
2021/03/10 00:15:06;;;;;;;52.92;26.85;;;5.60;82.60;;;;;;5019715;28;20069;-69
2021/03/10 00:17:32;;;;;;;29.65;17.40;;;5.70;82.40;;;;;;5017042;28;20025;-72
2021/03/10 00:19:58;;;;;;;34.13;19.02;;;5.70;83.00;;;;;;5020873;28;20048;-65
2021/03/10 00:22:24;;;;;;;34.47;21.02;;;5.60;83.40;;;;;;5019327;28;20018;-72
2021/03/10 00:24:50;;;;;;;25.77;16.38;;;5.60;83.70;;;;;;5021329;28;20155;-75
2021/03/10 00:27:25;;;;;;;24.42;15.27;;;5.60;84.80;;;;;;5020455;28;20049;-68
2021/03/10 00:29:53;;;;;;;29.45;17.88;;;5.50;86.00;;;;;;5021789;28;20024;-68
2021/03/10 00:32:20;;;;;;;23.83;15.38;;;5.40;86.60;;;;;;5021561;28;20025;-70
2021/03/10 00:34:47;;;;;;;28.13;17.65;;;5.30;88.10;;;;;;5020782;28;20013;-66
2021/03/10 00:37:15;;;;;;;26.58;16.80;;;5.30;89.00;;;;;;5020641;28;20044;-77
2021/03/10 00:39:42;;;;;;;30.95;19.58;;;5.30;88.70;;;;;;5022106;28;20528;-67
2021/03/10 00:42:08;;;;;;;30.05;17.70;;;5.30;88.60;;;;;;5021860;28;20010;-73
2021/03/10 00:44:34;;;;;;;26.02;16.58;;;5.40;88.60;;;;;;5021120;28;20380;-80
2021/03/10 00:47:00;;;;;;;28.90;18.88;;;5.50;88.10;;;;;;5021189;28;20387;-68
2021/03/10 00:49:26;;;;;;;24.15;14.70;;;5.50;88.20;;;;;;5020948;28;20174;-80
2021/03/10 00:51:52;;;;;;;22.88;14.75;;;5.60;88.10;;;;;;5021522;28;20160;-73
2021/03/10 00:54:18;;;;;;;28.40;17.70;;;5.60;87.50;;;;;;5021048;28;20092;-78
2021/03/10 00:56:44;;;;;;;28.40;18.63;;;5.60;88.90;;;;;;5019778;28;20064;-68
2021/03/10 00:59:10;;;;;;;30.50;19.10;;;5.60;87.60;;;;;;5019248;28;20029;-69
2021/03/10 01:01:36;;;;;;;21.58;13.77;;;5.60;87.50;;;;;;5018304;28;20057;-68
2021/03/10 01:04:02;;;;;;;20.27;13.73;;;5.60;87.90;;;;;;5016155;28;20480;-68
2021/03/10 01:06:29;;;;;;;24.33;16.23;;;5.60;87.30;;;;;;5018208;28;20017;-72
2021/03/10 01:08:55;;;;;;;27.25;16.75;;;5.70;86.40;;;;;;5021771;28;20017;-68
2021/03/10 01:11:21;;;;;;;28.73;17.13;;;5.60;86.40;;;;;;5021586;28;20075;-80
2021/03/10 01:13:47;;;;;;;36.15;21.48;;;5.70;86.00;;;;;;5019502;28;20033;-83
2021/03/10 01:16:13;;;;;;;30.35;18.63;;;5.60;85.10;;;;;;5020627;28;20030;-82
2021/03/10 01:18:39;;;;;;;23.98;16.08;;;5.60;85.10;;;;;;5020142;28;20048;-76
2021/03/10 01:21:06;;;;;;;25.50;15.85;;;5.60;86.00;;;;;;5021277;28;20419;-66
2021/03/10 01:23:32;;;;;;;36.50;23.08;;;5.50;85.60;;;;;;5021283;28;20100;-67
2021/03/10 01:25:58;;;;;;;25.52;16.45;;;5.40;86.10;;;;;;5020334;28;20502;-69
2021/03/10 01:28:24;;;;;;;28.70;16.80;;;5.40;85.40;;;;;;5021992;28;20067;-80
2021/03/10 01:30:50;;;;;;;28.55;17.08;;;5.40;85.60;;;;;;5020897;28;20042;-75
2021/03/10 01:33:17;;;;;;;28.08;18.67;;;5.40;85.80;;;;;;5019648;28;20022;-84
2021/03/10 01:35:43;;;;;;;29.67;18.20;;;5.30;86.40;;;;;;5020792;28;20021;-69
2021/03/10 01:38:09;;;;;;;26.25;16.30;;;5.40;85.70;;;;;;5020994;28;20044;-68
2021/03/10 01:40:35;;;;;;;27.73;17.42;;;5.30;85.80;;;;;;5021175;28;20026;-66
2021/03/10 01:43:03;;;;;;;28.08;18.25;;;5.30;85.70;;;;;;5021181;28;20010;-76
2021/03/10 01:45:30;;;;;;;27.17;16.80;;;5.30;85.50;;;;;;5021301;28;20022;-69
2021/03/10 01:47:58;;;;;;;31.50;18.33;;;5.20;84.60;;;;;;5021497;28;20033;-68
2021/03/10 01:50:26;;;;;;;32.97;19.48;;;5.30;84.70;;;;;;5020297;28;20180;-67
2021/03/10 01:52:54;;;;;;;28.52;17.45;;;5.40;84.60;;;;;;5020307;28;20096;-78
2021/03/10 01:55:21;;;;;;;27.88;17.20;;;5.50;84.40;;;;;;5018781;28;20030;-68
2021/03/10 01:57:47;;;;;;;26.60;17.00;;;5.50;84.90;;;;;;5021059;28;20018;-81
2021/03/10 02:00:13;;;;;;;29.88;18.48;;;5.50;84.80;;;;;;5019318;28;20010;-79
2021/03/10 02:02:40;;;;;;;26.17;16.40;;;5.50;85.10;;;;;;5018058;28;20033;-66
2021/03/10 02:05:07;;;;;;;26.23;16.38;;;5.50;84.50;;;;;;5017521;28;20021;-66
2021/03/10 02:07:54;;;;;;;29.20;16.17;;;5.60;84.40;;;;;;5019536;28;20026;-71
2021/03/10 02:10:45;;;;;;;34.95;17.60;;;5.60;81.10;;;;;;5015929;28;20029;-78
2021/03/10 02:13:55;;;;;;;29.88;15.70;;;5.50;78.80;;;;;;5014835;28;20045;-67
2021/03/10 02:16:55;;;;;;;25.45;14.77;;;5.50;77.80;;;;;;5017860;28;20033;-68
2021/03/10 02:19:39;;;;;;;25.80;14.90;;;5.40;79.20;;;;;;4996685;28;20073;-66
2021/03/10 02:22:07;;;;;;;28.05;15.73;;;5.50;79.20;;;;;;4998927;28;20039;-78
2021/03/10 02:24:53;;;;;;;27.52;15.23;;;5.40;78.90;;;;;;5000306;28;20480;-83
2021/03/10 02:27:37;;;;;;;29.30;14.05;;;5.50;78.60;;;;;;5001262;28;20034;-84
2021/03/10 02:30:09;;;;;;;25.13;14.27;;;5.40;78.20;;;;;;5001575;28;20026;-84
2021/03/10 02:32:38;;;;;;;24.80;14.70;;;5.40;79.30;;;;;;5001514;28;20769;-69
2021/03/10 02:35:07;;;;;;;24.48;14.48;;;5.50;78.80;;;;;;5001319;28;20034;-68
2021/03/10 02:37:37;;;;;;;23.60;13.65;;;5.50;79.60;;;;;;5003269;28;20675;-75
2021/03/10 02:40:05;;;;;;;27.92;15.52;;;5.50;79.60;;;;;;5001778;28;20006;-71
2021/03/10 02:42:33;;;;;;;30.58;15.85;;;5.50;79.00;;;;;;5002631;28;20073;-66
2021/03/10 02:45:00;;;;;;;33.22;16.67;;;5.40;79.20;;;;;;5003297;28;20453;-69
2021/03/10 02:47:26;;;;;;;29.70;15.20;;;5.30;80.90;;;;;;4986776;28;20034;-67
2021/03/10 02:49:54;;;;;;;25.92;13.43;;;5.30;80.90;;;;;;5001078;28;20624;-75
2021/03/10 02:52:22;;;;;;;26.17;14.75;;;5.30;81.30;;;;;;5002611;28;20161;-69
2021/03/10 02:54:50;;;;;;;28.52;14.60;;;5.40;81.60;;;;;;5022776;28;20044;-82
2021/03/10 02:57:16;;;;;;;30.40;18.23;;;5.30;82.70;;;;;;5042700;28;20033;-68
2021/03/10 02:59:45;;;;;;;36.53;21.10;;;5.20;82.40;;;;;;5044266;28;20079;-77
2021/03/10 03:02:12;;;;;;;24.73;15.18;;;5.30;82.80;;;;;;5043713;28;20002;-79
2021/03/10 03:04:37;;;;;;;29.45;16.80;;;5.20;82.60;;;;;;5042354;28;20022;-66
2021/03/10 03:07:04;;;;;;;21.90;13.05;;;5.10;82.30;;;;;;5042110;28;20028;-74
2021/03/10 03:09:31;;;;;;;25.95;14.73;;;5.00;83.30;;;;;;5042890;28;20025;-70
2021/03/10 03:11:57;;;;;;;36.90;19.80;;;4.90;85.50;;;;;;5041860;28;20099;-79
2021/03/10 03:14:24;;;;;;;22.02;13.38;;;4.90;86.50;;;;;;5043729;28;20025;-74
2021/03/10 03:16:50;;;;;;;34.40;18.63;;;4.70;87.60;;;;;;5042732;28;20025;-69
2021/03/10 03:19:16;;;;;;;34.85;19.70;;;4.70;87.80;;;;;;5043128;28;20109;-67
2021/03/10 03:21:43;;;;;;;31.17;18.52;;;4.90;88.80;;;;;;5041492;28;20056;-79
2021/03/10 03:24:10;;;;;;;24.50;15.73;;;4.80;88.70;;;;;;5043056;28;20021;-67
2021/03/10 03:26:36;;;;;;;33.90;19.08;;;4.80;88.20;;;;;;5041707;28;20017;-67
2021/03/10 03:29:03;;;;;;;32.95;18.17;;;4.80;89.10;;;;;;5041776;28;20529;-81
2021/03/10 03:31:33;;;;;;;34.42;18.35;;;4.90;88.30;;;;;;5042639;28;20033;-73
2021/03/10 03:33:59;;;;;;;40.90;20.63;;;4.90;88.80;;;;;;5038283;28;20037;-67
2021/03/10 03:36:25;;;;;;;39.97;22.45;;;5.00;90.00;;;;;;5041391;28;20018;-75
2021/03/10 03:38:52;;;;;;;33.67;17.63;;;4.90;90.10;;;;;;5041177;28;20083;-68
2021/03/10 03:41:20;;;;;;;30.92;18.20;;;4.80;90.20;;;;;;5040386;28;20025;-68
2021/03/10 03:43:46;;;;;;;37.25;20.10;;;4.90;90.90;;;;;;5041246;28;20041;-83
2021/03/10 03:46:14;;;;;;;38.17;20.40;;;4.90;91.40;;;;;;5040302;28;20026;-68
2021/03/10 03:48:40;;;;;;;42.95;23.20;;;5.00;91.20;;;;;;5043346;28;20487;-70
2021/03/10 03:51:24;;;;;;;30.80;18.48;;;5.00;91.40;;;;;;5040471;28;20516;-76
2021/03/10 03:54:05;;;;;;;40.10;24.95;;;5.00;91.20;;;;;;5043040;28;20095;-68
2021/03/10 03:56:31;;;;;;;43.63;26.42;;;5.00;90.90;;;;;;5042283;28;20034;-69
2021/03/10 03:58:58;;;;;;;45.78;29.65;;;5.10;91.80;;;;;;5042487;28;20017;-80
2021/03/10 04:01:24;;;;;;;38.17;26.27;;;5.00;92.40;;;;;;5040823;28;20029;-77
2021/03/10 04:03:50;;;;;;;44.03;30.52;;;5.00;92.40;;;;;;5036986;28;20450;-78
2021/03/10 04:06:16;;;;;;;50.17;35.55;;;5.00;92.20;;;;;;5041495;28;20072;-74
2021/03/10 04:08:44;;;;;;;51.55;35.63;;;5.00;92.70;;;;;;5042160;28;20020;-77
2021/03/10 04:11:12;;;;;;;50.35;35.75;;;5.00;92.70;;;;;;5041359;28;20116;-68
2021/03/10 04:13:38;;;;;;;62.20;42.22;;;5.00;92.40;;;;;;5039479;28;20025;-79
2021/03/10 04:16:05;;;;;;;47.17;33.25;;;5.00;94.00;;;;;;5041240;28;20005;-81
2021/03/10 04:18:31;;;;;;;40.22;29.65;;;5.00;93.80;;;;;;5038269;28;20025;-68
2021/03/10 04:20:57;;;;;;;41.38;28.48;;;5.00;93.90;;;;;;5039411;28;20408;-66
2021/03/10 04:23:23;;;;;;;34.22;24.40;;;5.00;93.40;;;;;;5038517;28;20040;-71
2021/03/10 04:25:49;;;;;;;61.85;35.92;;;5.00;93.40;;;;;;5039776;28;20096;-80
2021/03/10 04:28:15;;;;;;;31.33;20.75;;;5.00;94.50;;;;;;5038032;28;20032;-80
2021/03/10 04:30:41;;;;;;;29.48;19.67;;;4.90;94.80;;;;;;5037003;28;20025;-68
2021/03/10 04:33:07;;;;;;;48.05;31.80;;;4.80;94.90;;;;;;5035987;28;20029;-80
2021/03/10 04:35:33;;;;;;;33.22;24.42;;;4.90;94.50;;;;;;5039730;28;20525;-77
2021/03/10 04:37:59;;;;;;;32.08;24.88;;;4.90;94.00;;;;;;5041087;28;20049;-80
2021/03/10 04:40:25;;;;;;;36.60;25.90;;;4.90;93.90;;;;;;5040394;28;20033;-71
2021/03/10 04:42:51;;;;;;;38.90;27.23;;;4.80;93.90;;;;;;5038415;28;20022;-82
2021/03/10 04:45:17;;;;;;;43.75;27.88;;;4.90;93.30;;;;;;5040667;28;20025;-80
2021/03/10 04:47:44;;;;;;;32.88;22.63;;;4.80;94.40;;;;;;5041309;28;20455;-79
2021/03/10 04:50:12;;;;;;;22.70;16.33;;;4.80;93.60;;;;;;5036958;28;20052;-66
2021/03/10 04:52:38;;;;;;;23.90;16.95;;;4.80;94.50;;;;;;5041610;28;20033;-73
2021/03/10 04:55:06;;;;;;;27.50;20.38;;;4.70;94.00;;;;;;5043872;28;20006;-77
2021/03/10 04:57:32;;;;;;;30.90;22.90;;;4.70;94.10;;;;;;5043613;28;20476;-68
2021/03/10 04:59:58;;;;;;;43.15;31.02;;;4.60;93.80;;;;;;5044532;28;20027;-81
2021/03/10 05:02:24;;;;;;;42.38;28.42;;;4.60;94.30;;;;;;5039379;28;20075;-77
2021/03/10 05:04:50;;;;;;;103.07;71.90;;;4.60;94.20;;;;;;5042608;28;20029;-81
2021/03/10 05:07:16;;;;;;;73.13;49.78;;;4.60;94.00;;;;;;5042072;28;20025;-80
2021/03/10 05:09:43;;;;;;;54.08;35.83;;;4.40;94.00;;;;;;5043344;28;20017;-72
2021/03/10 05:12:09;;;;;;;48.42;33.78;;;4.40;94.20;;;;;;5042053;28;20552;-68
2021/03/10 05:14:35;;;;;;;35.30;24.90;;;4.40;94.00;;;;;;5044459;28;20111;-79
2021/03/10 05:17:01;;;;;;;28.88;17.98;;;4.40;94.30;;;;;;5045187;28;20368;-81
2021/03/10 05:19:27;;;;;;;24.20;17.48;;;4.40;94.10;;;;;;5040393;28;20017;-80
2021/03/10 05:21:53;;;;;;;27.35;17.52;;;4.30;94.40;;;;;;5036554;28;20024;-73
2021/03/10 05:24:19;;;;;;;28.05;19.55;;;4.30;94.70;;;;;;5036934;28;20022;-65
2021/03/10 05:26:45;;;;;;;27.52;19.85;;;4.30;94.40;;;;;;5035282;28;20048;-81
2021/03/10 05:29:11;;;;;;;33.30;23.40;;;4.30;94.70;;;;;;5034235;28;20024;-66
2021/03/10 05:31:37;;;;;;;33.70;23.75;;;4.30;94.70;;;;;;5035442;28;20491;-79
2021/03/10 05:34:03;;;;;;;28.73;19.75;;;4.20;95.00;;;;;;5035339;28;20024;-68
2021/03/10 05:36:29;;;;;;;28.92;20.35;;;4.30;95.20;;;;;;5037732;28;20029;-68
2021/03/10 05:38:55;;;;;;;29.02;20.92;;;4.30;94.30;;;;;;5039593;28;20021;-79
2021/03/10 05:41:21;;;;;;;27.58;18.67;;;4.30;95.40;;;;;;5036715;28;20101;-80
2021/03/10 05:43:48;;;;;;;34.50;23.40;;;4.30;95.50;;;;;;5041019;28;20097;-66
2021/03/10 05:46:14;;;;;;;37.03;25.52;;;4.30;95.00;;;;;;5038446;28;20427;-80
2021/03/10 05:48:40;;;;;;;34.42;24.35;;;4.30;95.10;;;;;;5036967;28;20096;-72
2021/03/10 05:51:07;;;;;;;31.30;22.27;;;4.30;95.10;;;;;;5037833;28;20116;-79
2021/03/10 05:53:37;;;;;;;24.55;17.83;;;4.30;95.10;;;;;;5040214;28;20022;-77
2021/03/10 05:56:05;;;;;;;22.70;15.50;;;4.40;95.30;;;;;;5039392;28;20029;-65
2021/03/10 05:58:31;;;;;;;21.75;15.55;;;4.40;95.30;;;;;;5038134;28;20025;-65
2021/03/10 06:00:57;;;;;;;23.60;16.25;;;4.30;95.20;;;;;;5037572;28;20014;-65
2021/03/10 06:03:23;;;;;;;24.67;15.88;;;4.30;95.30;;;;;;5038017;28;20108;-66
2021/03/10 06:06:03;;;;;;;22.88;15.18;;;4.40;95.20;;;;;;5037945;28;20033;-74
2021/03/10 06:08:30;;;;;;;23.35;14.82;;;4.30;95.10;;;;;;5036702;28;20484;-76
2021/03/10 06:10:57;;;;;;;23.75;14.93;;;4.30;95.70;;;;;;5043824;28;20025;-66
2021/03/10 06:13:30;;;;;;;22.65;15.48;;;4.30;95.10;;;;;;5035512;28;20379;-69
2021/03/10 06:16:01;;;;;;;23.83;15.55;;;4.20;95.40;;;;;;5043467;28;20026;-77
2021/03/10 06:18:30;;;;;;;25.17;16.80;;;4.20;95.70;;;;;;5044592;28;20030;-76
2021/03/10 06:21:09;;;;;;;33.92;20.77;;;4.30;95.50;;;;;;5039435;28;20101;-73
2021/03/10 06:23:53;;;;;;;29.00;18.27;;;4.30;95.80;;;;;;5043711;28;20081;-70
2021/03/10 06:26:21;;;;;;;26.02;19.27;;;4.30;95.60;;;;;;5035875;28;20038;-77
2021/03/10 06:28:48;;;;;;;24.90;19.27;;;4.20;95.50;;;;;;5041051;28;20021;-76
2021/03/10 06:31:19;;;;;;;22.27;16.35;;;4.20;95.50;;;;;;5033507;28;20026;-66
2021/03/10 06:33:50;;;;;;;19.60;13.98;;;4.10;96.00;;;;;;5036317;28;20025;-73
2021/03/10 06:36:24;;;;;;;21.08;14.10;;;4.20;95.60;;;;;;5033929;28;20026;-78
2021/03/10 06:38:51;;;;;;;25.63;16.50;;;4.10;95.50;;;;;;5041470;28;20176;-76
2021/03/10 06:41:36;;;;;;;28.33;17.65;;;4.30;95.40;;;;;;5034390;28;20068;-68
2021/03/10 06:44:19;;;;;;;28.55;18.92;;;4.20;96.00;;;;;;5042306;28;20049;-65
2021/03/10 06:46:56;;;;;;;26.85;18.45;;;4.30;96.00;;;;;;5040643;28;20391;-72
2021/03/10 06:49:23;;;;;;;30.38;20.10;;;4.40;96.00;;;;;;5043232;28;20065;-68
2021/03/10 06:51:53;;;;;;;24.77;17.17;;;4.40;95.80;;;;;;5036723;28;20379;-68
2021/03/10 06:54:19;;;;;;;22.95;15.77;;;4.60;95.60;;;;;;5038317;28;20025;-65
2021/03/10 06:56:45;;;;;;;24.92;14.80;;;4.50;95.50;;;;;;5038626;28;20033;-77
2021/03/10 06:59:11;;;;;;;25.70;16.90;;;4.50;95.00;;;;;;5036490;28;20075;-68
2021/03/10 07:01:39;;;;;;;23.17;15.52;;;4.50;95.60;;;;;;5035722;28;20060;-65
2021/03/10 07:04:07;;;;;;;25.88;17.20;;;4.60;95.40;;;;;;5034455;28;20037;-68
2021/03/10 07:06:34;;;;;;;25.85;17.20;;;4.60;95.40;;;;;;5034494;28;20010;-66
2021/03/10 07:09:03;;;;;;;26.85;19.75;;;4.60;95.60;;;;;;5037501;28;20037;-68
2021/03/10 07:11:30;;;;;;;27.55;20.63;;;4.70;95.70;;;;;;5037021;28;20022;-65
2021/03/10 07:13:56;;;;;;;22.90;16.50;;;4.80;95.40;;;;;;5036438;28;20034;-66
2021/03/10 07:16:23;;;;;;;22.85;16.15;;;4.80;95.40;;;;;;5036588;28;20467;-65
2021/03/10 07:18:49;;;;;;;31.63;18.55;;;4.90;95.10;;;;;;5038390;28;20021;-78
2021/03/10 07:21:25;;;;;;;28.70;17.65;;;5.00;94.70;;;;;;5039113;28;20029;-68
2021/03/10 07:23:53;;;;;;;27.42;17.08;;;5.00;95.20;;;;;;5042501;28;20383;-69
2021/03/10 07:26:21;;;;;;;22.38;16.33;;;5.00;95.40;;;;;;5041415;28;20021;-78
2021/03/10 07:28:55;;;;;;;22.38;14.88;;;5.10;94.10;;;;;;5046258;28;20021;-67
2021/03/10 07:31:24;;;;;;;23.98;16.08;;;5.10;95.50;;;;;;5041868;28;20036;-70
2021/03/10 07:33:54;;;;;;;30.30;17.88;;;5.20;94.10;;;;;;5043773;28;20504;-70
2021/03/10 07:36:38;;;;;;;28.23;18.23;;;5.30;94.10;;;;;;5043758;28;20446;-70
2021/03/10 07:39:06;;;;;;;23.13;15.93;;;5.30;94.10;;;;;;5042619;28;20005;-76
2021/03/10 07:41:35;;;;;;;33.33;20.90;;;5.30;95.00;;;;;;5042221;28;20014;-64
2021/03/10 07:44:01;;;;;;;43.38;23.42;;;5.30;94.80;;;;;;5045179;28;20061;-64
2021/03/10 07:46:30;;;;;;;24.10;15.25;;;5.30;95.00;;;;;;5042867;28;20024;-65
2021/03/10 07:48:57;;;;;;;23.08;15.15;;;5.40;95.20;;;;;;5040291;28;20044;-77
2021/03/10 07:51:27;;;;;;;24.23;16.58;;;5.40;95.20;;;;;;5045819;28;20041;-77
2021/03/10 07:53:53;;;;;;;31.45;21.30;;;5.40;94.60;;;;;;5043748;28;20022;-75
2021/03/10 07:56:32;;;;;;;21.55;15.40;;;5.40;95.00;;;;;;5040307;28;20018;-76
2021/03/10 07:59:18;;;;;;;20.17;14.00;;;5.60;94.00;;;;;;5044182;28;20100;-70
2021/03/10 08:01:44;;;;;;;25.27;17.42;;;5.80;94.70;;;;;;5047227;28;20016;-74
2021/03/10 08:04:18;;;;;;;22.92;17.40;;;5.80;94.30;;;;;;5043776;28;20083;-66
2021/03/10 08:06:49;;;;;;;19.58;13.95;;;5.80;94.40;;;;;;5045462;28;20065;-75
2021/03/10 08:09:17;;;;;;;25.77;18.77;;;5.60;93.20;;;;;;5045090;28;20104;-76
2021/03/10 08:11:45;;;;;;;26.90;17.92;;;5.60;93.80;;;;;;5045170;28;20023;-66
2021/03/10 08:14:15;;;;;;;30.02;19.70;;;5.60;94.10;;;;;;5046347;28;20391;-64
2021/03/10 08:16:42;;;;;;;36.17;23.73;;;5.50;94.50;;;;;;5044676;28;20081;-70
2021/03/10 08:19:09;;;;;;;25.77;17.45;;;5.50;94.20;;;;;;5040978;28;20026;-70
2021/03/10 08:21:48;;;;;;;24.05;15.82;;;5.70;94.50;;;;;;5035254;28;20026;-67
2021/03/10 08:24:14;;;;;;;23.77;16.50;;;5.90;94.30;;;;;;5025853;28;20031;-67
2021/03/10 08:26:41;;;;;;;21.17;15.68;;;5.90;94.30;;;;;;5026162;28;20043;-64
2021/03/10 08:29:08;;;;;;;26.40;15.90;;;6.00;93.50;;;;;;5025368;28;20054;-73
2021/03/10 08:32:03;;;;;;;23.92;16.38;;;6.00;93.60;;;;;;5023257;28;20026;-67
2021/03/10 08:34:39;;;;;;;29.85;18.70;;;6.10;92.80;;;;;;4990925;28;20031;-70
2021/03/10 08:37:08;;;;;;;35.17;20.42;;;6.00;92.60;;;;;;4990619;28;20046;-66
2021/03/10 08:39:42;;;;;;;22.33;16.20;;;6.00;94.40;;;;;;4992204;28;20113;-64
2021/03/10 08:42:09;;;;;;;;;;;6.10;93.90;;;;;;4994502;28;20030;-75
2021/03/10 08:44:43;;;;;;;42.72;24.90;;;6.20;93.80;;;;;;4990494;28;19909;-74
2021/03/10 08:47:18;;;;;;;35.17;22.50;;;6.20;93.50;;;;;;4991043;28;20106;-66
2021/03/10 08:49:50;;;;;;;30.83;20.95;;;6.40;94.00;;;;;;4991945;28;20219;-66
2021/03/10 08:52:17;;;;;;;31.63;19.23;;;6.40;93.80;;;;;;5000751;28;20066;-77
2021/03/10 08:54:59;;;;;;;22.92;16.52;;;6.40;93.10;;;;;;5005796;28;20026;-65
2021/03/10 08:57:32;;;;;;;27.85;18.83;;;6.50;93.10;;;;;;4988192;28;20507;-77
2021/03/10 09:00:00;;;;;;;27.90;19.05;;;6.70;93.50;;;;;;4994317;28;20460;-80
2021/03/10 09:02:34;;;;;;;24.23;17.25;;;6.60;92.80;;;;;;5000211;28;20014;-77
2021/03/10 09:05:02;;;;;;;30.63;20.30;;;6.60;93.70;;;;;;5000739;28;20050;-70
2021/03/10 09:07:28;;;;;;;22.08;16.85;;;6.50;93.10;;;;;;5002820;28;20026;-79
2021/03/10 09:10:00;;;;;;;174.57;121.82;;;6.60;92.60;;;;;;5002428;28;20030;-66
2021/03/10 09:12:29;;;;;;;152.05;99.15;;;6.40;92.20;;;;;;5041043;28;20029;-78
2021/03/10 09:14:56;;;;;;;54.22;34.80;;;6.20;92.70;;;;;;5042381;28;20013;-74
2021/03/10 09:17:32;;;;;;;372.08;225.20;;;6.30;93.10;;;;;;5046142;28;20022;-75
2021/03/10 09:20:02;;;;;;;39.72;24.48;;;6.50;92.90;;;;;;5043707;28;20383;-77
2021/03/10 09:22:28;;;;;;;27.95;19.25;;;6.50;92.50;;;;;;5043736;28;20104;-80
2021/03/10 09:24:58;;;;;;;32.65;22.35;;;6.50;93.60;;;;;;5041602;28;20022;-66
2021/03/10 09:27:29;;;;;;;35.42;23.58;;;6.50;93.40;;;;;;5043538;28;20100;-68
2021/03/10 09:30:02;;;;;;;35.63;25.17;;;6.40;92.80;;;;;;5042748;28;20036;-75
2021/03/10 09:32:46;;;;;;;38.80;26.33;;;6.00;93.80;;;;;;5042195;28;20123;-76
2021/03/10 09:35:14;;;;;;;73.50;44.58;;;5.90;94.40;;;;;;5044024;28;20013;-67
2021/03/10 09:37:51;;;;;;;50.13;37.40;;;5.80;94.40;;;;;;5044203;28;20034;-76
2021/03/10 09:40:19;;;;;;;56.20;38.28;;;5.50;94.60;;;;;;5046771;28;20014;-76
2021/03/10 09:42:59;;;;;;;56.00;36.25;;;5.80;95.30;;;;;;5046016;28;20605;-74
2021/03/10 09:45:27;;;;;;;70.07;46.53;;;6.10;94.30;;;;;;5042454;28;20032;-66
2021/03/10 09:47:53;;;;;;;31.00;22.25;;;6.40;94.40;;;;;;5023285;28;20054;-66
2021/03/10 09:50:46;;;;;;;152.48;100.72;;;6.50;93.40;;;;;;5023289;28;20125;-66
2021/03/10 09:53:18;;;;;;;99.43;67.63;;;6.50;93.50;;;;;;5032610;28;20080;-65
2021/03/10 09:55:44;;;;;;;38.45;28.27;;;6.60;92.90;;;;;;5041219;28;20587;-82
2021/03/10 09:58:12;;;;;;;64.45;41.33;;;6.50;93.50;;;;;;5042853;28;20025;-76
2021/03/10 10:00:40;;;;;;;116.65;60.58;;;6.60;93.90;;;;;;5045603;28;20006;-82
2021/03/10 10:03:07;;;;;;;61.88;41.15;;;6.80;93.90;;;;;;5043143;28;20021;-65
2021/03/10 10:05:36;;;;;;;65.20;38.58;;;6.80;94.50;;;;;;5041917;28;20040;-67
2021/03/10 10:08:07;;;;;;;32.78;24.25;;;6.60;93.40;;;;;;5043804;28;20028;-70
2021/03/10 10:10:35;;;;;;;50.88;33.95;;;6.60;93.00;;;;;;5043170;28;20029;-76
2021/03/10 10:13:03;;;;;;;49.90;33.95;;;6.60;95.00;;;;;;5044799;28;20025;-83
2021/03/10 10:15:34;;;;;;;53.63;39.30;;;6.40;93.90;;;;;;5044651;28;20022;-79
2021/03/10 10:18:03;;;;;;;55.20;36.70;;;6.60;94.10;;;;;;5045434;28;20471;-76
2021/03/10 10:20:33;;;;;;;96.38;66.18;;;6.70;94.10;;;;;;5043970;28;20093;-77
2021/03/10 10:22:59;;;;;;;45.53;33.70;;;6.90;94.10;;;;;;5046594;28;20064;-77
2021/03/10 10:25:25;;;;;;;46.42;33.20;;;6.60;93.20;;;;;;5045442;28;20021;-68
2021/03/10 10:27:51;;;;;;;41.58;28.23;;;6.90;94.10;;;;;;5043121;28;20468;-78
2021/03/10 10:30:19;;;;;;;58.97;36.42;;;7.60;93.60;;;;;;5042712;28;20014;-77
2021/03/10 10:32:47;;;;;;;49.63;34.80;;;7.50;92.80;;;;;;5044565;28;20021;-75
2021/03/10 10:35:16;;;;;;;35.85;25.48;;;7.50;92.70;;;;;;5039514;28;20034;-66
2021/03/10 10:37:43;;;;;;;43.53;31.23;;;7.50;91.60;;;;;;5041742;28;20033;-75
2021/03/10 10:40:15;;;;;;;46.17;31.65;;;8.00;92.40;;;;;;5045636;28;20110;-69
2021/03/10 10:42:42;;;;;;;63.55;40.42;;;8.40;91.30;;;;;;5045574;28;20033;-70
2021/03/10 10:45:08;;;;;;;32.08;22.58;;;9.10;89.80;;;;;;5049016;28;20021;-77
2021/03/10 10:47:35;;;;;;;31.45;22.85;;;9.30;78.00;;;;;;5045940;28;20029;-76
2021/03/10 10:50:08;;;;;;;24.42;18.65;;;9.40;82.40;;;;;;5046277;28;20041;-76
2021/03/10 10:52:35;;;;;;;27.90;19.13;;;9.30;76.90;;;;;;5048355;28;20017;-77
2021/03/10 10:55:01;;;;;;;42.83;30.33;;;9.30;77.70;;;;;;5048406;28;20091;-68
2021/03/10 10:57:27;;;;;;;28.23;21.00;;;9.40;78.20;;;;;;5044552;28;20025;-74
2021/03/10 10:59:53;;;;;;;29.38;21.42;;;9.40;78.20;;;;;;5043961;28;20414;-68
2021/03/10 11:02:22;;;;;;;30.75;24.10;;;9.30;76.20;;;;;;5047224;28;20020;-77
2021/03/10 11:04:48;;;;;;;37.40;25.73;;;9.70;76.90;;;;;;5046058;28;20021;-78
2021/03/10 11:07:14;;;;;;;24.30;17.05;;;10.30;93.10;;;;;;5048143;28;20048;-77
2021/03/10 11:09:40;;;;;;;21.08;16.08;;;10.40;86.50;;;;;;5047280;28;20068;-78
2021/03/10 11:12:09;;;;;;;18.70;14.80;;;10.40;70.20;;;;;;5041526;28;20049;-68
2021/03/10 11:14:36;;;;;;;15.13;11.70;;;10.10;67.30;;;;;;5041799;28;20045;-67
2021/03/10 11:17:05;;;;;;;18.75;14.18;;;9.50;58.40;;;;;;5041232;28;20024;-76
2021/03/10 11:19:31;;;;;;;18.83;13.70;;;9.60;68.00;;;;;;5041807;28;20056;-67
2021/03/10 11:21:57;;;;;;;18.92;13.77;;;9.30;62.40;;;;;;5039028;28;20013;-68
2021/03/10 11:24:23;;;;;;;22.38;14.20;;;9.40;63.30;;;;;;5044054;28;20113;-76
2021/03/10 11:26:49;;;;;;;22.52;17.38;;;9.20;63.50;;;;;;5039647;28;20022;-68
2021/03/10 11:29:15;;;;;;;17.70;14.02;;;;;;;;;;5040383;28;20022;-77
2021/03/10 11:31:42;;;;;;;20.67;15.43;;;9.80;67.60;;;;;;5041095;28;20432;-68
2021/03/10 11:34:12;;;;;;;18.63;13.43;;;10.30;65.40;;;;;;5043877;28;20034;-82
2021/03/10 11:36:38;;;;;;;40.83;33.92;;;10.10;62.30;;;;;;5040023;28;20071;-69
2021/03/10 11:39:04;;;;;;;28.50;18.30;;;10.00;61.60;;;;;;5041709;28;20468;-70
2021/03/10 11:41:30;;;;;;;28.88;19.23;;;9.60;60.90;;;;;;5042329;28;20030;-69
2021/03/10 11:43:57;;;;;;;44.72;30.23;;;9.50;62.90;;;;;;5038826;28;20040;-76
2021/03/10 11:46:23;;;;;;;46.63;27.70;;;9.30;67.70;;;;;;5036654;28;20021;-76
2021/03/10 11:48:49;;;;;;;27.65;19.10;;;9.00;69.00;;;;;;5043618;28;20033;-68
2021/03/10 11:51:15;;;;;;;24.80;17.20;;;8.80;67.40;;;;;;5038485;28;20045;-66
2021/03/10 11:53:40;;;;;;;23.13;18.35;;;8.70;68.70;;;;;;5043928;28;20074;-69
2021/03/10 11:56:06;;;;;;;28.75;18.80;;;8.50;68.00;;;;;;5039010;28;20002;-70
2021/03/10 11:58:32;;;;;;;22.67;16.90;;;8.40;69.60;;;;;;5038041;28;20083;-69
2021/03/10 12:00:58;;;;;;;27.40;19.30;;;8.50;67.50;;;;;;5037320;28;20021;-75
2021/03/10 12:03:24;;;;;;;30.10;18.90;;;8.50;72.10;;;;;;5036452;28;20052;-69
2021/03/10 12:05:50;;;;;;;28.83;18.00;;;9.40;75.30;;;;;;5037619;28;20440;-76
2021/03/10 12:08:15;;;;;;;19.60;16.27;;;10.30;69.30;;;;;;5039947;28;20075;-68
2021/03/10 12:10:41;;;;;;;23.52;17.38;;;10.60;62.00;;;;;;5043595;28;20490;-68
2021/03/10 12:13:11;;;;;;;31.52;24.02;;;11.60;67.50;;;;;;5042241;28;20016;-69
2021/03/10 12:15:40;;;;;;;47.92;30.83;;;11.20;61.10;;;;;;5041978;28;20033;-73
2021/03/10 12:18:06;;;;;;;26.95;20.13;;;11.40;62.80;;;;;;5040779;28;20113;-69
2021/03/10 12:20:33;;;;;;;29.05;23.90;;;11.90;63.20;;;;;;5036348;28;20026;-69
2021/03/10 12:22:59;;;;;;;26.65;20.55;;;10.80;62.10;;;;;;5035469;28;20101;-70
2021/03/10 12:25:25;;;;;;;129.68;54.60;;;11.10;63.70;;;;;;5024678;28;20075;-68
2021/03/10 12:27:51;;;;;;;102.93;46.97;;;10.40;64.70;;;;;;5024574;28;20032;-71
2021/03/10 12:30:18;;;;;;;35.00;24.20;;;9.80;64.30;;;;;;5022919;28;20018;-69
2021/03/10 12:32:44;;;;;;;36.50;25.02;;;9.90;67.30;;;;;;5024817;28;20030;-70
2021/03/10 12:35:10;;;;;;;39.53;27.70;;;9.40;63.80;;;;;;5024306;28;20018;-68
2021/03/10 12:37:36;;;;;;;100.82;67.85;;;8.90;66.50;;;;;;5023099;28;20029;-68
2021/03/10 12:40:03;;;;;;;43.20;28.13;;;8.70;66.30;;;;;;5026016;28;20366;-69
2021/03/10 12:42:29;;;;;;;25.95;19.23;;;8.90;67.80;;;;;;5023916;28;20057;-69